sensor_id;sensor_type;location;lat;lon;timestamp;P1;durP1;ratioP1;P2;durP2;ratioP2
9098;SDS011;4585;51.414;6.776;2022-07-19T00:01:12;4.07;;;2.73;;
9098;SDS011;4585;51.414;6.776;2022-07-19T00:03:38;5.43;;;3.10;;
9098;SDS011;4585;51.414;6.776;2022-07-19T00:06:04;9.73;;;3.40;;
9098;SDS011;4585;51.414;6.776;2022-07-19T00:08:29;4.93;;;2.80;;
9098;SDS011;4585;51.414;6.776;2022-07-19T00:10:55;7.20;;;3.03;;
9098;SDS011;4585;51.414;6.776;2022-07-19T00:13:21;3.57;;;2.80;;
9098;SDS011;4585;51.414;6.776;2022-07-19T00:15:47;4.60;;;2.97;;
9098;SDS011;4585;51.414;6.776;2022-07-19T00:18:14;4.67;;;2.87;;
9098;SDS011;4585;51.414;6.776;2022-07-19T00:20:40;4.67;;;3.00;;
9098;SDS011;4585;51.414;6.776;2022-07-19T00:23:06;3.47;;;2.80;;
9098;SDS011;4585;51.414;6.776;2022-07-19T00:25:31;5.53;;;3.10;;
9098;SDS011;4585;51.414;6.776;2022-07-19T00:27:57;5.60;;;3.23;;
9098;SDS011;4585;51.414;6.776;2022-07-19T00:30:23;4.63;;;3.10;;
9098;SDS011;4585;51.414;6.776;2022-07-19T00:32:48;5.67;;;3.17;;
9098;SDS011;4585;51.414;6.776;2022-07-19T00:35:14;5.63;;;3.17;;
9098;SDS011;4585;51.414;6.776;2022-07-19T00:37:40;4.23;;;3.10;;
9098;SDS011;4585;51.414;6.776;2022-07-19T00:40:05;4.37;;;3.03;;
9098;SDS011;4585;51.414;6.776;2022-07-19T00:42:31;7.50;;;3.33;;
9098;SDS011;4585;51.414;6.776;2022-07-19T00:44:57;6.73;;;3.50;;
9098;SDS011;4585;51.414;6.776;2022-07-19T00:47:23;6.10;;;3.13;;
9098;SDS011;4585;51.414;6.776;2022-07-19T00:49:49;5.37;;;3.27;;
9098;SDS011;4585;51.414;6.776;2022-07-19T00:52:15;5.10;;;3.03;;
9098;SDS011;4585;51.414;6.776;2022-07-19T00:54:43;8.37;;;3.10;;
9098;SDS011;4585;51.414;6.776;2022-07-19T00:57:11;6.13;;;3.10;;
9098;SDS011;4585;51.414;6.776;2022-07-19T00:59:39;4.57;;;3.17;;
9098;SDS011;4585;51.414;6.776;2022-07-19T01:02:08;4.17;;;3.00;;
9098;SDS011;4585;51.414;6.776;2022-07-19T01:04:36;4.50;;;3.17;;
9098;SDS011;4585;51.414;6.776;2022-07-19T01:07:02;6.63;;;3.30;;
9098;SDS011;4585;51.414;6.776;2022-07-19T01:09:28;5.20;;;3.37;;
9098;SDS011;4585;51.414;6.776;2022-07-19T01:11:54;6.17;;;3.30;;
9098;SDS011;4585;51.414;6.776;2022-07-19T01:14:21;4.60;;;3.30;;
9098;SDS011;4585;51.414;6.776;2022-07-19T01:16:46;6.53;;;3.30;;
9098;SDS011;4585;51.414;6.776;2022-07-19T01:19:12;5.20;;;3.60;;
9098;SDS011;4585;51.414;6.776;2022-07-19T01:21:38;3.77;;;2.90;;
9098;SDS011;4585;51.414;6.776;2022-07-19T01:24:05;3.63;;;3.13;;
9098;SDS011;4585;51.414;6.776;2022-07-19T01:26:30;4.33;;;3.10;;
9098;SDS011;4585;51.414;6.776;2022-07-19T01:28:56;7.83;;;3.40;;
9098;SDS011;4585;51.414;6.776;2022-07-19T01:31:22;3.63;;;3.00;;
9098;SDS011;4585;51.414;6.776;2022-07-19T01:33:48;6.83;;;3.30;;
9098;SDS011;4585;51.414;6.776;2022-07-19T01:36:13;5.30;;;3.37;;
9098;SDS011;4585;51.414;6.776;2022-07-19T01:38:39;3.83;;;2.90;;
9098;SDS011;4585;51.414;6.776;2022-07-19T01:41:05;4.57;;;3.07;;
9098;SDS011;4585;51.414;6.776;2022-07-19T01:43:32;4.83;;;3.10;;
9098;SDS011;4585;51.414;6.776;2022-07-19T01:45:58;5.47;;;3.17;;
9098;SDS011;4585;51.414;6.776;2022-07-19T01:48:24;5.13;;;3.20;;
9098;SDS011;4585;51.414;6.776;2022-07-19T01:50:50;5.87;;;3.10;;
9098;SDS011;4585;51.414;6.776;2022-07-19T01:53:16;5.40;;;3.13;;
9098;SDS011;4585;51.414;6.776;2022-07-19T01:55:41;4.53;;;3.33;;
9098;SDS011;4585;51.414;6.776;2022-07-19T01:58:07;4.57;;;3.33;;
9098;SDS011;4585;51.414;6.776;2022-07-19T02:00:33;5.57;;;3.30;;
9098;SDS011;4585;51.414;6.776;2022-07-19T02:02:58;6.10;;;3.10;;
9098;SDS011;4585;51.414;6.776;2022-07-19T02:05:24;4.60;;;2.93;;
9098;SDS011;4585;51.414;6.776;2022-07-19T02:07:50;4.03;;;3.10;;
9098;SDS011;4585;51.414;6.776;2022-07-19T02:10:16;3.83;;;3.20;;
9098;SDS011;4585;51.414;6.776;2022-07-19T02:12:42;4.93;;;3.37;;
9098;SDS011;4585;51.414;6.776;2022-07-19T02:15:08;3.77;;;2.77;;
9098;SDS011;4585;51.414;6.776;2022-07-19T02:17:35;6.70;;;3.00;;
9098;SDS011;4585;51.414;6.776;2022-07-19T02:20:01;4.20;;;3.10;;
9098;SDS011;4585;51.414;6.776;2022-07-19T02:22:28;6.43;;;3.20;;
9098;SDS011;4585;51.414;6.776;2022-07-19T02:24:54;4.50;;;2.97;;
9098;SDS011;4585;51.414;6.776;2022-07-19T02:27:20;4.00;;;3.27;;
9098;SDS011;4585;51.414;6.776;2022-07-19T02:29:46;4.37;;;3.30;;
9098;SDS011;4585;51.414;6.776;2022-07-19T02:32:13;3.70;;;3.30;;
9098;SDS011;4585;51.414;6.776;2022-07-19T02:34:38;5.27;;;3.37;;
9098;SDS011;4585;51.414;6.776;2022-07-19T02:37:04;3.97;;;2.90;;
9098;SDS011;4585;51.414;6.776;2022-07-19T02:39:30;5.63;;;3.47;;
9098;SDS011;4585;51.414;6.776;2022-07-19T02:41:56;6.20;;;3.50;;
9098;SDS011;4585;51.414;6.776;2022-07-19T02:44:21;4.40;;;3.30;;
9098;SDS011;4585;51.414;6.776;2022-07-19T02:46:47;4.43;;;3.30;;
9098;SDS011;4585;51.414;6.776;2022-07-19T02:49:13;5.43;;;3.47;;
9098;SDS011;4585;51.414;6.776;2022-07-19T02:51:39;5.57;;;3.33;;
9098;SDS011;4585;51.414;6.776;2022-07-19T02:54:04;6.30;;;3.43;;
9098;SDS011;4585;51.414;6.776;2022-07-19T02:56:30;4.03;;;3.40;;
9098;SDS011;4585;51.414;6.776;2022-07-19T02:58:56;4.53;;;3.30;;
9098;SDS011;4585;51.414;6.776;2022-07-19T03:01:21;6.40;;;3.60;;
9098;SDS011;4585;51.414;6.776;2022-07-19T03:03:47;4.60;;;3.33;;
9098;SDS011;4585;51.414;6.776;2022-07-19T03:06:14;6.03;;;3.30;;
9098;SDS011;4585;51.414;6.776;2022-07-19T03:08:41;3.77;;;3.17;;
9098;SDS011;4585;51.414;6.776;2022-07-19T03:11:07;7.20;;;3.40;;
9098;SDS011;4585;51.414;6.776;2022-07-19T03:13:33;4.87;;;3.40;;
9098;SDS011;4585;51.414;6.776;2022-07-19T03:15:59;4.50;;;3.40;;
9098;SDS011;4585;51.414;6.776;2022-07-19T03:18:24;4.83;;;3.10;;
9098;SDS011;4585;51.414;6.776;2022-07-19T03:20:50;6.57;;;3.37;;
9098;SDS011;4585;51.414;6.776;2022-07-19T03:23:16;3.73;;;3.30;;
9098;SDS011;4585;51.414;6.776;2022-07-19T03:25:42;5.13;;;3.07;;
9098;SDS011;4585;51.414;6.776;2022-07-19T03:28:07;4.77;;;3.10;;
9098;SDS011;4585;51.414;6.776;2022-07-19T03:30:33;4.77;;;3.10;;
9098;SDS011;4585;51.414;6.776;2022-07-19T03:32:59;4.73;;;3.23;;
9098;SDS011;4585;51.414;6.776;2022-07-19T03:35:25;3.77;;;2.90;;
9098;SDS011;4585;51.414;6.776;2022-07-19T03:37:51;5.27;;;3.23;;
9098;SDS011;4585;51.414;6.776;2022-07-19T03:40:16;4.67;;;3.30;;
9098;SDS011;4585;51.414;6.776;2022-07-19T03:42:42;4.47;;;3.10;;
9098;SDS011;4585;51.414;6.776;2022-07-19T03:45:08;5.63;;;3.13;;
9098;SDS011;4585;51.414;6.776;2022-07-19T03:47:34;6.87;;;3.07;;
9098;SDS011;4585;51.414;6.776;2022-07-19T03:50:00;5.50;;;3.20;;
9098;SDS011;4585;51.414;6.776;2022-07-19T03:52:26;3.20;;;2.80;;
9098;SDS011;4585;51.414;6.776;2022-07-19T03:54:52;3.57;;;2.90;;
9098;SDS011;4585;51.414;6.776;2022-07-19T03:57:17;3.93;;;3.30;;
9098;SDS011;4585;51.414;6.776;2022-07-19T03:59:43;6.07;;;3.60;;
9098;SDS011;4585;51.414;6.776;2022-07-19T04:02:09;5.13;;;3.67;;
9098;SDS011;4585;51.414;6.776;2022-07-19T04:04:35;6.07;;;3.60;;
9098;SDS011;4585;51.414;6.776;2022-07-19T04:07:00;7.50;;;3.63;;
9098;SDS011;4585;51.414;6.776;2022-07-19T04:09:26;5.67;;;3.90;;
9098;SDS011;4585;51.414;6.776;2022-07-19T04:11:53;5.43;;;4.37;;
9098;SDS011;4585;51.414;6.776;2022-07-19T04:14:18;5.00;;;4.20;;
9098;SDS011;4585;51.414;6.776;2022-07-19T04:16:44;11.10;;;5.13;;
9098;SDS011;4585;51.414;6.776;2022-07-19T04:19:10;5.80;;;4.63;;
9098;SDS011;4585;51.414;6.776;2022-07-19T04:21:35;8.00;;;4.67;;
9098;SDS011;4585;51.414;6.776;2022-07-19T04:24:01;7.80;;;4.60;;
9098;SDS011;4585;51.414;6.776;2022-07-19T04:26:27;5.67;;;4.60;;
9098;SDS011;4585;51.414;6.776;2022-07-19T04:28:53;7.70;;;4.80;;
9098;SDS011;4585;51.414;6.776;2022-07-19T04:31:18;7.47;;;5.20;;
9098;SDS011;4585;51.414;6.776;2022-07-19T04:33:44;8.93;;;4.77;;
9098;SDS011;4585;51.414;6.776;2022-07-19T04:36:10;6.63;;;4.50;;
9098;SDS011;4585;51.414;6.776;2022-07-19T04:38:35;9.10;;;4.73;;
9098;SDS011;4585;51.414;6.776;2022-07-19T04:41:01;8.73;;;4.80;;
9098;SDS011;4585;51.414;6.776;2022-07-19T04:43:27;9.10;;;4.73;;
9098;SDS011;4585;51.414;6.776;2022-07-19T04:45:52;8.13;;;4.57;;
9098;SDS011;4585;51.414;6.776;2022-07-19T04:48:18;11.23;;;4.70;;
9098;SDS011;4585;51.414;6.776;2022-07-19T04:50:44;8.67;;;4.13;;
9098;SDS011;4585;51.414;6.776;2022-07-19T04:53:09;5.37;;;4.30;;
9098;SDS011;4585;51.414;6.776;2022-07-19T04:55:36;5.80;;;4.20;;
9098;SDS011;4585;51.414;6.776;2022-07-19T04:58:03;5.50;;;4.00;;
9098;SDS011;4585;51.414;6.776;2022-07-19T05:00:29;4.17;;;3.53;;
9098;SDS011;4585;51.414;6.776;2022-07-19T05:02:55;4.07;;;3.40;;
9098;SDS011;4585;51.414;6.776;2022-07-19T05:05:21;6.53;;;3.70;;
9098;SDS011;4585;51.414;6.776;2022-07-19T05:07:48;7.40;;;4.23;;
9098;SDS011;4585;51.414;6.776;2022-07-19T05:10:14;4.80;;;3.67;;
9098;SDS011;4585;51.414;6.776;2022-07-19T05:12:40;5.47;;;3.53;;
9098;SDS011;4585;51.414;6.776;2022-07-19T05:15:07;5.37;;;3.37;;
9098;SDS011;4585;51.414;6.776;2022-07-19T05:17:34;9.37;;;4.23;;
9098;SDS011;4585;51.414;6.776;2022-07-19T05:20:00;6.20;;;3.37;;
9098;SDS011;4585;51.414;6.776;2022-07-19T05:22:26;4.27;;;3.10;;
9098;SDS011;4585;51.414;6.776;2022-07-19T05:24:52;9.03;;;3.70;;
9098;SDS011;4585;51.414;6.776;2022-07-19T05:27:19;5.57;;;3.03;;
9098;SDS011;4585;51.414;6.776;2022-07-19T05:29:45;6.37;;;3.70;;
9098;SDS011;4585;51.414;6.776;2022-07-19T05:32:11;8.00;;;3.27;;
9098;SDS011;4585;51.414;6.776;2022-07-19T05:34:36;5.87;;;3.27;;
9098;SDS011;4585;51.414;6.776;2022-07-19T05:37:02;4.93;;;3.03;;
9098;SDS011;4585;51.414;6.776;2022-07-19T05:39:28;7.33;;;2.93;;
9098;SDS011;4585;51.414;6.776;2022-07-19T05:41:54;6.43;;;3.60;;
9098;SDS011;4585;51.414;6.776;2022-07-19T05:44:19;4.30;;;3.03;;
9098;SDS011;4585;51.414;6.776;2022-07-19T05:46:46;3.67;;;3.00;;
9098;SDS011;4585;51.414;6.776;2022-07-19T05:49:12;8.50;;;3.37;;
9098;SDS011;4585;51.414;6.776;2022-07-19T05:51:38;7.73;;;3.10;;
9098;SDS011;4585;51.414;6.776;2022-07-19T05:54:04;5.47;;;3.27;;
9098;SDS011;4585;51.414;6.776;2022-07-19T05:56:29;4.80;;;3.27;;
9098;SDS011;4585;51.414;6.776;2022-07-19T05:58:55;5.23;;;3.20;;
9098;SDS011;4585;51.414;6.776;2022-07-19T06:01:21;6.40;;;2.90;;
9098;SDS011;4585;51.414;6.776;2022-07-19T06:03:54;5.13;;;3.20;;
9098;SDS011;4585;51.414;6.776;2022-07-19T06:06:22;13.20;;;3.37;;
9098;SDS011;4585;51.414;6.776;2022-07-19T06:08:49;8.37;;;3.50;;
9098;SDS011;4585;51.414;6.776;2022-07-19T06:11:15;4.27;;;2.50;;
9098;SDS011;4585;51.414;6.776;2022-07-19T06:13:41;4.70;;;2.40;;
9098;SDS011;4585;51.414;6.776;2022-07-19T06:16:08;6.10;;;2.60;;
9098;SDS011;4585;51.414;6.776;2022-07-19T06:18:34;4.53;;;2.77;;
9098;SDS011;4585;51.414;6.776;2022-07-19T06:21:02;3.37;;;2.40;;
9098;SDS011;4585;51.414;6.776;2022-07-19T06:23:39;8.70;;;2.60;;
9098;SDS011;4585;51.414;6.776;2022-07-19T06:26:05;5.13;;;2.80;;
9098;SDS011;4585;51.414;6.776;2022-07-19T06:28:31;3.07;;;2.37;;
9098;SDS011;4585;51.414;6.776;2022-07-19T06:30:57;5.20;;;2.73;;
9098;SDS011;4585;51.414;6.776;2022-07-19T06:33:23;7.43;;;3.07;;
9098;SDS011;4585;51.414;6.776;2022-07-19T06:35:49;2.97;;;2.33;;
9098;SDS011;4585;51.414;6.776;2022-07-19T06:38:15;7.53;;;2.43;;
9098;SDS011;4585;51.414;6.776;2022-07-19T06:40:40;4.83;;;2.43;;
9098;SDS011;4585;51.414;6.776;2022-07-19T06:43:06;3.78;;;2.30;;
9098;SDS011;4585;51.414;6.776;2022-07-19T06:45:32;6.23;;;2.10;;
9098;SDS011;4585;51.414;6.776;2022-07-19T06:47:58;3.00;;;2.10;;
9098;SDS011;4585;51.414;6.776;2022-07-19T06:50:24;5.53;;;2.40;;
9098;SDS011;4585;51.414;6.776;2022-07-19T06:52:49;3.80;;;2.05;;
9098;SDS011;4585;51.414;6.776;2022-07-19T06:55:15;6.07;;;2.00;;
9098;SDS011;4585;51.414;6.776;2022-07-19T06:57:41;4.03;;;2.00;;
9098;SDS011;4585;51.414;6.776;2022-07-19T07:00:07;5.70;;;2.05;;
9098;SDS011;4585;51.414;6.776;2022-07-19T07:02:38;4.50;;;2.20;;
9098;SDS011;4585;51.414;6.776;2022-07-19T07:05:05;11.18;;;2.60;;
9098;SDS011;4585;51.414;6.776;2022-07-19T07:07:32;2.70;;;2.03;;
9098;SDS011;4585;51.414;6.776;2022-07-19T07:09:58;2.88;;;2.13;;
9098;SDS011;4585;51.414;6.776;2022-07-19T07:12:26;4.03;;;2.00;;
9098;SDS011;4585;51.414;6.776;2022-07-19T07:14:52;4.18;;;2.05;;
9098;SDS011;4585;51.414;6.776;2022-07-19T07:17:18;5.10;;;2.00;;
9098;SDS011;4585;51.414;6.776;2022-07-19T07:19:44;3.88;;;2.00;;
9098;SDS011;4585;51.414;6.776;2022-07-19T07:22:10;5.90;;;1.80;;
9098;SDS011;4585;51.414;6.776;2022-07-19T07:24:35;6.65;;;2.03;;
9098;SDS011;4585;51.414;6.776;2022-07-19T07:27:01;2.75;;;1.77;;
9098;SDS011;4585;51.414;6.776;2022-07-19T07:29:27;6.05;;;1.90;;
9098;SDS011;4585;51.414;6.776;2022-07-19T07:31:53;3.85;;;1.98;;
9098;SDS011;4585;51.414;6.776;2022-07-19T07:34:18;2.17;;;1.70;;
9098;SDS011;4585;51.414;6.776;2022-07-19T07:36:44;2.33;;;1.90;;
9098;SDS011;4585;51.414;6.776;2022-07-19T07:39:11;1.70;;;1.58;;
9098;SDS011;4585;51.414;6.776;2022-07-19T07:41:37;2.22;;;1.65;;
9098;SDS011;4585;51.414;6.776;2022-07-19T07:44:03;3.28;;;1.90;;
9098;SDS011;4585;51.414;6.776;2022-07-19T07:46:29;5.18;;;2.20;;
9098;SDS011;4585;51.414;6.776;2022-07-19T07:48:54;2.60;;;2.00;;
9098;SDS011;4585;51.414;6.776;2022-07-19T07:51:21;3.25;;;1.80;;
9098;SDS011;4585;51.414;6.776;2022-07-19T07:53:46;1.95;;;1.77;;
9098;SDS011;4585;51.414;6.776;2022-07-19T07:56:12;3.33;;;1.80;;
9098;SDS011;4585;51.414;6.776;2022-07-19T07:58:38;3.15;;;1.75;;
9098;SDS011;4585;51.414;6.776;2022-07-19T08:01:03;7.55;;;1.98;;
9098;SDS011;4585;51.414;6.776;2022-07-19T08:03:29;2.60;;;1.63;;
9098;SDS011;4585;51.414;6.776;2022-07-19T08:05:55;3.30;;;1.70;;
9098;SDS011;4585;51.414;6.776;2022-07-19T08:08:22;2.75;;;1.60;;
9098;SDS011;4585;51.414;6.776;2022-07-19T08:10:55;1.90;;;1.60;;
9098;SDS011;4585;51.414;6.776;2022-07-19T08:13:22;3.03;;;1.90;;
9098;SDS011;4585;51.414;6.776;2022-07-19T08:15:48;2.60;;;1.80;;
9098;SDS011;4585;51.414;6.776;2022-07-19T08:18:14;2.97;;;1.80;;
9098;SDS011;4585;51.414;6.776;2022-07-19T08:20:40;1.92;;;1.70;;
9098;SDS011;4585;51.414;6.776;2022-07-19T08:23:06;4.32;;;2.10;;
9098;SDS011;4585;51.414;6.776;2022-07-19T08:25:32;14.38;;;2.55;;
9098;SDS011;4585;51.414;6.776;2022-07-19T08:27:59;4.05;;;1.85;;
9098;SDS011;4585;51.414;6.776;2022-07-19T08:30:25;3.22;;;1.80;;
9098;SDS011;4585;51.414;6.776;2022-07-19T08:32:51;8.50;;;1.98;;
9098;SDS011;4585;51.414;6.776;2022-07-19T08:35:16;2.58;;;1.60;;
9098;SDS011;4585;51.414;6.776;2022-07-19T08:37:42;5.60;;;1.80;;
9098;SDS011;4585;51.414;6.776;2022-07-19T08:40:08;2.00;;;1.58;;
9098;SDS011;4585;51.414;6.776;2022-07-19T08:42:34;6.10;;;1.85;;
9098;SDS011;4585;51.414;6.776;2022-07-19T08:45:01;6.40;;;1.80;;
9098;SDS011;4585;51.414;6.776;2022-07-19T08:47:29;3.33;;;1.90;;
9098;SDS011;4585;51.414;6.776;2022-07-19T08:49:57;5.10;;;2.05;;
9098;SDS011;4585;51.414;6.776;2022-07-19T08:52:24;2.08;;;1.85;;
9098;SDS011;4585;51.414;6.776;2022-07-19T08:54:51;2.47;;;1.65;;
9098;SDS011;4585;51.414;6.776;2022-07-19T08:57:16;5.72;;;1.90;;
9098;SDS011;4585;51.414;6.776;2022-07-19T09:00:01;6.82;;;2.10;;
9098;SDS011;4585;51.414;6.776;2022-07-19T09:02:28;2.95;;;2.08;;
9098;SDS011;4585;51.414;6.776;2022-07-19T09:05:27;2.60;;;1.60;;
9098;SDS011;4585;51.414;6.776;2022-07-19T09:07:59;3.65;;;1.77;;
9098;SDS011;4585;51.414;6.776;2022-07-19T09:10:26;7.85;;;1.77;;
9098;SDS011;4585;51.414;6.776;2022-07-19T09:20:38;3.13;;;1.90;;
9098;SDS011;4585;51.414;6.776;2022-07-19T09:23:05;2.80;;;1.80;;
9098;SDS011;4585;51.414;6.776;2022-07-19T09:25:36;2.60;;;1.70;;
9098;SDS011;4585;51.414;6.776;2022-07-19T09:28:04;3.15;;;1.77;;
9098;SDS011;4585;51.414;6.776;2022-07-19T09:30:37;1.83;;;1.73;;
9098;SDS011;4585;51.414;6.776;2022-07-19T09:33:27;4.10;;;2.00;;
9098;SDS011;4585;51.414;6.776;2022-07-19T09:36:11;2.47;;;1.80;;
9098;SDS011;4585;51.414;6.776;2022-07-19T09:38:38;6.97;;;2.00;;
9098;SDS011;4585;51.414;6.776;2022-07-19T09:41:11;8.38;;;2.08;;
9098;SDS011;4585;51.414;6.776;2022-07-19T09:43:52;4.15;;;2.10;;
9098;SDS011;4585;51.414;6.776;2022-07-19T09:46:32;3.75;;;1.80;;
9098;SDS011;4585;51.414;6.776;2022-07-19T09:51:38;5.55;;;2.00;;
9098;SDS011;4585;51.414;6.776;2022-07-19T09:54:06;5.93;;;1.90;;
9098;SDS011;4585;51.414;6.776;2022-07-19T09:56:34;5.15;;;2.05;;
9098;SDS011;4585;51.414;6.776;2022-07-19T09:59:03;2.47;;;1.75;;
9098;SDS011;4585;51.414;6.776;2022-07-19T10:01:29;4.78;;;2.22;;
9098;SDS011;4585;51.414;6.776;2022-07-19T10:03:58;6.05;;;2.13;;
9098;SDS011;4585;51.414;6.776;2022-07-19T10:06:28;2.83;;;1.98;;
9098;SDS011;4585;51.414;6.776;2022-07-19T10:08:54;6.78;;;1.83;;
9098;SDS011;4585;51.414;6.776;2022-07-19T10:11:21;3.67;;;1.80;;
9098;SDS011;4585;51.414;6.776;2022-07-19T10:13:50;5.88;;;2.05;;
9098;SDS011;4585;51.414;6.776;2022-07-19T10:16:19;2.53;;;1.80;;
9098;SDS011;4585;51.414;6.776;2022-07-19T10:19:26;3.10;;;2.00;;
9098;SDS011;4585;51.414;6.776;2022-07-19T10:21:44;5.35;;;2.03;;
9098;SDS011;4585;51.414;6.776;2022-07-19T10:24:11;2.83;;;1.75;;
9098;SDS011;4585;51.414;6.776;2022-07-19T10:26:38;2.45;;;1.90;;
9098;SDS011;4585;51.414;6.776;2022-07-19T10:29:10;3.75;;;1.75;;
9098;SDS011;4585;51.414;6.776;2022-07-19T10:31:40;2.22;;;1.92;;
9098;SDS011;4585;51.414;6.776;2022-07-19T10:34:08;3.90;;;2.05;;
9098;SDS011;4585;51.414;6.776;2022-07-19T10:36:39;2.78;;;2.00;;
9098;SDS011;4585;51.414;6.776;2022-07-19T10:50:03;3.00;;;1.77;;
9098;SDS011;4585;51.414;6.776;2022-07-19T10:52:39;4.35;;;1.95;;
9098;SDS011;4585;51.414;6.776;2022-07-19T10:57:43;2.38;;;1.77;;
9098;SDS011;4585;51.414;6.776;2022-07-19T11:00:22;3.65;;;1.88;;
9098;SDS011;4585;51.414;6.776;2022-07-19T11:02:51;6.90;;;3.58;;
9098;SDS011;4585;51.414;6.776;2022-07-19T11:07:51;2.95;;;1.80;;
9098;SDS011;4585;51.414;6.776;2022-07-19T11:10:24;8.60;;;4.32;;
9098;SDS011;4585;51.414;6.776;2022-07-19T11:12:55;3.60;;;2.08;;
9098;SDS011;4585;51.414;6.776;2022-07-19T11:15:23;6.25;;;2.03;;
9098;SDS011;4585;51.414;6.776;2022-07-19T11:20:29;2.10;;;1.90;;
9098;SDS011;4585;51.414;6.776;2022-07-19T11:22:56;2.65;;;1.70;;
9098;SDS011;4585;51.414;6.776;2022-07-19T11:25:24;3.58;;;2.22;;
9098;SDS011;4585;51.414;6.776;2022-07-19T11:27:57;2.15;;;1.70;;
9098;SDS011;4585;51.414;6.776;2022-07-19T11:30:24;1.48;;;1.38;;
9098;SDS011;4585;51.414;6.776;2022-07-19T11:32:52;2.05;;;1.63;;
9098;SDS011;4585;51.414;6.776;2022-07-19T11:35:20;2.92;;;1.77;;
9098;SDS011;4585;51.414;6.776;2022-07-19T11:37:46;5.15;;;2.13;;
9098;SDS011;4585;51.414;6.776;2022-07-19T11:40:12;5.68;;;1.83;;
9098;SDS011;4585;51.414;6.776;2022-07-19T11:42:40;2.75;;;1.83;;
9098;SDS011;4585;51.414;6.776;2022-07-19T11:47:42;4.93;;;1.63;;
9098;SDS011;4585;51.414;6.776;2022-07-19T11:50:09;2.97;;;1.48;;
9098;SDS011;4585;51.414;6.776;2022-07-19T11:55:16;1.83;;;1.60;;
9098;SDS011;4585;51.414;6.776;2022-07-19T11:57:43;1.77;;;1.48;;
9098;SDS011;4585;51.414;6.776;2022-07-19T12:00:10;1.50;;;1.40;;
9098;SDS011;4585;51.414;6.776;2022-07-19T12:02:56;1.48;;;1.38;;
9098;SDS011;4585;51.414;6.776;2022-07-19T12:05:37;3.65;;;1.73;;
9098;SDS011;4585;51.414;6.776;2022-07-19T12:08:04;2.40;;;1.40;;
9098;SDS011;4585;51.414;6.776;2022-07-19T12:13:07;2.08;;;1.63;;
9098;SDS011;4585;51.414;6.776;2022-07-19T12:15:52;2.50;;;1.70;;
9098;SDS011;4585;51.414;6.776;2022-07-19T12:18:20;2.67;;;1.90;;
9098;SDS011;4585;51.414;6.776;2022-07-19T12:21:22;2.63;;;1.80;;
9098;SDS011;4585;51.414;6.776;2022-07-19T12:24:07;3.67;;;1.65;;
9098;SDS011;4585;51.414;6.776;2022-07-19T12:26:38;1.75;;;1.50;;
9098;SDS011;4585;51.414;6.776;2022-07-19T12:29:16;2.10;;;1.70;;
9098;SDS011;4585;51.414;6.776;2022-07-19T12:31:43;5.68;;;1.73;;
9098;SDS011;4585;51.414;6.776;2022-07-19T12:34:10;2.70;;;1.80;;
9098;SDS011;4585;51.414;6.776;2022-07-19T12:36:36;5.57;;;1.85;;
9098;SDS011;4585;51.414;6.776;2022-07-19T12:39:03;2.42;;;1.77;;
9098;SDS011;4585;51.414;6.776;2022-07-19T12:41:29;1.95;;;1.65;;
9098;SDS011;4585;51.414;6.776;2022-07-19T12:43:55;4.40;;;1.92;;
9098;SDS011;4585;51.414;6.776;2022-07-19T12:46:21;5.55;;;1.60;;
9098;SDS011;4585;51.414;6.776;2022-07-19T12:48:47;3.85;;;1.90;;
9098;SDS011;4585;51.414;6.776;2022-07-19T12:51:12;4.07;;;1.70;;
9098;SDS011;4585;51.414;6.776;2022-07-19T12:53:38;2.60;;;1.95;;
9098;SDS011;4585;51.414;6.776;2022-07-19T12:56:04;2.05;;;1.60;;
9098;SDS011;4585;51.414;6.776;2022-07-19T12:58:30;3.40;;;1.67;;
9098;SDS011;4585;51.414;6.776;2022-07-19T13:01:14;2.80;;;1.77;;
9098;SDS011;4585;51.414;6.776;2022-07-19T13:03:40;4.35;;;1.77;;
9098;SDS011;4585;51.414;6.776;2022-07-19T13:06:06;3.03;;;1.95;;
9098;SDS011;4585;51.414;6.776;2022-07-19T13:08:31;2.10;;;1.90;;
9098;SDS011;4585;51.414;6.776;2022-07-19T13:10:57;3.20;;;1.73;;
9098;SDS011;4585;51.414;6.776;2022-07-19T13:13:26;3.03;;;2.00;;
9098;SDS011;4585;51.414;6.776;2022-07-19T13:15:52;2.00;;;1.75;;
9098;SDS011;4585;51.414;6.776;2022-07-19T13:18:18;3.10;;;1.80;;
9098;SDS011;4585;51.414;6.776;2022-07-19T13:20:44;2.70;;;2.05;;
9098;SDS011;4585;51.414;6.776;2022-07-19T13:23:10;3.47;;;1.90;;
9098;SDS011;4585;51.414;6.776;2022-07-19T13:25:36;2.50;;;1.98;;
9098;SDS011;4585;51.414;6.776;2022-07-19T13:28:02;3.28;;;1.70;;
9098;SDS011;4585;51.414;6.776;2022-07-19T13:30:28;4.70;;;1.70;;
9098;SDS011;4585;51.414;6.776;2022-07-19T13:32:54;4.40;;;1.83;;
9098;SDS011;4585;51.414;6.776;2022-07-19T13:35:20;4.40;;;1.73;;
9098;SDS011;4585;51.414;6.776;2022-07-19T13:37:46;2.08;;;1.40;;
9098;SDS011;4585;51.414;6.776;2022-07-19T13:40:13;4.40;;;1.70;;
9098;SDS011;4585;51.414;6.776;2022-07-19T13:42:39;1.98;;;1.45;;
9098;SDS011;4585;51.414;6.776;2022-07-19T13:45:06;1.88;;;1.58;;
9098;SDS011;4585;51.414;6.776;2022-07-19T13:47:32;2.20;;;1.73;;
9098;SDS011;4585;51.414;6.776;2022-07-19T13:49:58;1.67;;;1.52;;
9098;SDS011;4585;51.414;6.776;2022-07-19T13:52:24;2.28;;;1.67;;
9098;SDS011;4585;51.414;6.776;2022-07-19T13:54:50;3.97;;;1.80;;
9098;SDS011;4585;51.414;6.776;2022-07-19T13:57:16;4.85;;;1.95;;
9098;SDS011;4585;51.414;6.776;2022-07-19T13:59:42;5.15;;;1.73;;
9098;SDS011;4585;51.414;6.776;2022-07-19T14:02:08;3.92;;;1.83;;
9098;SDS011;4585;51.414;6.776;2022-07-19T14:04:35;2.28;;;1.63;;
9098;SDS011;4585;51.414;6.776;2022-07-19T14:07:00;3.65;;;1.70;;
9098;SDS011;4585;51.414;6.776;2022-07-19T14:09:26;4.40;;;1.67;;
9098;SDS011;4585;51.414;6.776;2022-07-19T14:11:52;2.50;;;1.75;;
9098;SDS011;4585;51.414;6.776;2022-07-19T14:14:18;2.22;;;1.77;;
9098;SDS011;4585;51.414;6.776;2022-07-19T14:16:43;1.92;;;1.73;;
9098;SDS011;4585;51.414;6.776;2022-07-19T14:19:11;3.40;;;2.08;;
9098;SDS011;4585;51.414;6.776;2022-07-19T14:21:37;2.00;;;1.90;;
9098;SDS011;4585;51.414;6.776;2022-07-19T14:24:03;3.05;;;2.00;;
9098;SDS011;4585;51.414;6.776;2022-07-19T14:26:28;4.97;;;1.50;;
9098;SDS011;4585;51.414;6.776;2022-07-19T14:28:54;2.08;;;1.77;;
9098;SDS011;4585;51.414;6.776;2022-07-19T14:31:20;2.30;;;1.90;;
9098;SDS011;4585;51.414;6.776;2022-07-19T14:33:46;2.75;;;2.00;;
9098;SDS011;4585;51.414;6.776;2022-07-19T14:36:12;2.33;;;1.80;;
9098;SDS011;4585;51.414;6.776;2022-07-19T14:38:39;3.55;;;1.77;;
9098;SDS011;4585;51.414;6.776;2022-07-19T14:41:05;2.63;;;1.70;;
9098;SDS011;4585;51.414;6.776;2022-07-19T14:43:31;2.35;;;1.80;;
9098;SDS011;4585;51.414;6.776;2022-07-19T14:45:57;1.92;;;1.80;;
9098;SDS011;4585;51.414;6.776;2022-07-19T14:48:22;1.90;;;1.70;;
9098;SDS011;4585;51.414;6.776;2022-07-19T14:50:48;3.80;;;1.80;;
9098;SDS011;4585;51.414;6.776;2022-07-19T14:53:14;4.43;;;2.05;;
9098;SDS011;4585;51.414;6.776;2022-07-19T14:55:40;3.33;;;1.70;;
9098;SDS011;4585;51.414;6.776;2022-07-19T14:58:05;3.40;;;1.88;;
9098;SDS011;4585;51.414;6.776;2022-07-19T15:00:31;1.70;;;1.60;;
9098;SDS011;4585;51.414;6.776;2022-07-19T15:02:57;3.15;;;1.67;;
9098;SDS011;4585;51.414;6.776;2022-07-19T15:05:22;2.00;;;1.80;;
9098;SDS011;4585;51.414;6.776;2022-07-19T15:07:48;10.30;;;2.20;;
9098;SDS011;4585;51.414;6.776;2022-07-19T15:10:14;3.25;;;1.50;;
9098;SDS011;4585;51.414;6.776;2022-07-19T15:12:39;2.42;;;1.88;;
9098;SDS011;4585;51.414;6.776;2022-07-19T15:15:05;2.60;;;2.05;;
9098;SDS011;4585;51.414;6.776;2022-07-19T15:17:32;2.08;;;1.65;;
9098;SDS011;4585;51.414;6.776;2022-07-19T15:19:58;2.75;;;2.10;;
9098;SDS011;4585;51.414;6.776;2022-07-19T15:22:24;3.38;;;1.70;;
9098;SDS011;4585;51.414;6.776;2022-07-19T15:24:49;2.83;;;1.80;;
9098;SDS011;4585;51.414;6.776;2022-07-19T15:27:15;2.08;;;1.85;;
9098;SDS011;4585;51.414;6.776;2022-07-19T15:29:41;2.00;;;1.80;;
9098;SDS011;4585;51.414;6.776;2022-07-19T15:32:10;2.38;;;1.80;;
9098;SDS011;4585;51.414;6.776;2022-07-19T15:34:36;2.28;;;1.63;;
9098;SDS011;4585;51.414;6.776;2022-07-19T15:37:03;3.35;;;1.90;;
9098;SDS011;4585;51.414;6.776;2022-07-19T15:39:29;3.22;;;1.50;;
9098;SDS011;4585;51.414;6.776;2022-07-19T15:41:55;4.80;;;1.95;;
9098;SDS011;4585;51.414;6.776;2022-07-19T15:44:21;2.70;;;1.60;;
9098;SDS011;4585;51.414;6.776;2022-07-19T15:46:46;2.72;;;1.75;;
9098;SDS011;4585;51.414;6.776;2022-07-19T15:49:12;2.90;;;1.70;;
9098;SDS011;4585;51.414;6.776;2022-07-19T15:51:38;2.10;;;1.70;;